Aviation Digital Data Service (ADDS)

Output produced by METARs form (0647 UTC 28 April 2015)
found at http://www.aviationweather.gov/adds/metars/
 
SEGU 280600Z 23009KT 9999 FEW030 BKN100 25/22 Q1008 NOSIG RMK A2978
SEGU 280450 2806/2906 22005KT 9999 BKN020 BKN090 
     FM281300 VRB03KT 9999 SCT023 BKN100 
     FM281800 14005KT 9999 SCT025 SCT100 
     FM290000 22008KT 9999 SCT020 BKN100 TX31/2820Z TN24/2810Z
       
SEMT 280500Z 19003KT 9999 BKN023 26/22 Q1010
SEMT 280450 2806/2906 19006KT 9999 BKN030 
     FM281200 VRB03KT 9999 SCT030 SCT100 
     FM281800 28010KT 9999 SCT033 TX30/2819Z TN25/2810Z